sensor_id;sensor_type;location;lat;lon;timestamp;P1;durP1;ratioP1;P2;durP2;ratioP2
29574;SDS011;16507;51.046;6.406;2022-07-26T00:01:57;3.22;;;1.00;;
29574;SDS011;16507;51.046;6.406;2022-07-26T00:04:24;5.35;;;0.70;;
29574;SDS011;16507;51.046;6.406;2022-07-26T00:06:50;6.28;;;0.88;;
29574;SDS011;16507;51.046;6.406;2022-07-26T00:09:16;2.00;;;0.52;;
29574;SDS011;16507;51.046;6.406;2022-07-26T00:11:41;2.53;;;0.70;;
29574;SDS011;16507;51.046;6.406;2022-07-26T00:14:07;1.98;;;0.80;;
29574;SDS011;16507;51.046;6.406;2022-07-26T00:16:33;4.05;;;0.80;;
29574;SDS011;16507;51.046;6.406;2022-07-26T00:18:59;3.50;;;0.93;;
29574;SDS011;16507;51.046;6.406;2022-07-26T00:21:25;3.38;;;0.93;;
29574;SDS011;16507;51.046;6.406;2022-07-26T00:23:50;2.15;;;1.00;;
29574;SDS011;16507;51.046;6.406;2022-07-26T00:26:16;7.95;;;0.70;;
29574;SDS011;16507;51.046;6.406;2022-07-26T00:28:42;5.82;;;0.80;;
29574;SDS011;16507;51.046;6.406;2022-07-26T00:31:08;4.85;;;0.68;;
29574;SDS011;16507;51.046;6.406;2022-07-26T00:33:35;3.20;;;0.55;;
29574;SDS011;16507;51.046;6.406;2022-07-26T00:36:01;1.77;;;0.70;;
29574;SDS011;16507;51.046;6.406;2022-07-26T00:38:27;4.85;;;0.90;;
29574;SDS011;16507;51.046;6.406;2022-07-26T00:40:52;3.13;;;0.75;;
29574;SDS011;16507;51.046;6.406;2022-07-26T00:43:19;1.65;;;0.60;;
29574;SDS011;16507;51.046;6.406;2022-07-26T00:45:45;3.85;;;0.60;;
29574;SDS011;16507;51.046;6.406;2022-07-26T00:48:11;1.73;;;0.60;;
29574;SDS011;16507;51.046;6.406;2022-07-26T00:50:37;4.63;;;1.00;;
29574;SDS011;16507;51.046;6.406;2022-07-26T00:53:02;7.88;;;0.82;;
29574;SDS011;16507;51.046;6.406;2022-07-26T00:55:28;5.03;;;1.70;;
29574;SDS011;16507;51.046;6.406;2022-07-26T00:57:54;3.13;;;0.70;;
29574;SDS011;16507;51.046;6.406;2022-07-26T01:00:23;5.15;;;0.80;;
29574;SDS011;16507;51.046;6.406;2022-07-26T01:02:52;3.97;;;0.98;;
29574;SDS011;16507;51.046;6.406;2022-07-26T01:05:19;4.00;;;0.80;;
29574;SDS011;16507;51.046;6.406;2022-07-26T01:07:46;1.40;;;0.80;;
29574;SDS011;16507;51.046;6.406;2022-07-26T01:10:13;9.45;;;1.50;;
29574;SDS011;16507;51.046;6.406;2022-07-26T01:12:43;1.38;;;0.75;;
29574;SDS011;16507;51.046;6.406;2022-07-26T01:15:09;3.35;;;0.73;;
29574;SDS011;16507;51.046;6.406;2022-07-26T01:17:36;4.07;;;1.00;;
29574;SDS011;16507;51.046;6.406;2022-07-26T01:20:03;2.00;;;0.75;;
29574;SDS011;16507;51.046;6.406;2022-07-26T01:22:30;5.20;;;0.85;;
29574;SDS011;16507;51.046;6.406;2022-07-26T01:24:55;2.13;;;0.93;;
29574;SDS011;16507;51.046;6.406;2022-07-26T01:27:21;6.80;;;1.00;;
29574;SDS011;16507;51.046;6.406;2022-07-26T01:29:47;3.72;;;0.80;;
29574;SDS011;16507;51.046;6.406;2022-07-26T01:32:13;3.95;;;0.98;;
29574;SDS011;16507;51.046;6.406;2022-07-26T01:34:38;1.50;;;0.90;;
29574;SDS011;16507;51.046;6.406;2022-07-26T01:37:04;2.17;;;1.08;;
29574;SDS011;16507;51.046;6.406;2022-07-26T01:39:30;7.95;;;1.10;;
29574;SDS011;16507;51.046;6.406;2022-07-26T01:41:55;9.85;;;1.98;;
29574;SDS011;16507;51.046;6.406;2022-07-26T01:44:21;5.00;;;1.00;;
29574;SDS011;16507;51.046;6.406;2022-07-26T01:46:47;5.45;;;1.10;;
29574;SDS011;16507;51.046;6.406;2022-07-26T01:49:13;3.40;;;1.20;;
29574;SDS011;16507;51.046;6.406;2022-07-26T01:51:38;5.38;;;1.17;;
29574;SDS011;16507;51.046;6.406;2022-07-26T01:54:04;4.22;;;1.00;;
29574;SDS011;16507;51.046;6.406;2022-07-26T01:56:30;3.97;;;1.05;;
29574;SDS011;16507;51.046;6.406;2022-07-26T01:58:56;5.93;;;1.00;;
29574;SDS011;16507;51.046;6.406;2022-07-26T02:01:21;3.38;;;1.10;;
29574;SDS011;16507;51.046;6.406;2022-07-26T02:03:47;7.88;;;1.10;;
29574;SDS011;16507;51.046;6.406;2022-07-26T02:06:13;3.80;;;1.08;;
29574;SDS011;16507;51.046;6.406;2022-07-26T02:08:38;6.40;;;1.60;;
29574;SDS011;16507;51.046;6.406;2022-07-26T02:11:04;10.48;;;1.42;;
29574;SDS011;16507;51.046;6.406;2022-07-26T02:13:34;3.30;;;1.30;;
29574;SDS011;16507;51.046;6.406;2022-07-26T02:16:05;3.00;;;1.38;;
29574;SDS011;16507;51.046;6.406;2022-07-26T02:18:33;3.17;;;1.10;;
29574;SDS011;16507;51.046;6.406;2022-07-26T02:20:59;5.90;;;1.00;;
29574;SDS011;16507;51.046;6.406;2022-07-26T02:23:26;5.90;;;1.30;;
29574;SDS011;16507;51.046;6.406;2022-07-26T02:25:53;5.47;;;1.20;;
29574;SDS011;16507;51.046;6.406;2022-07-26T02:28:18;7.28;;;1.77;;
29574;SDS011;16507;51.046;6.406;2022-07-26T02:30:45;4.07;;;1.38;;
29574;SDS011;16507;51.046;6.406;2022-07-26T02:33:12;5.63;;;1.00;;
29574;SDS011;16507;51.046;6.406;2022-07-26T02:35:38;4.88;;;1.30;;
29574;SDS011;16507;51.046;6.406;2022-07-26T02:38:04;5.50;;;1.35;;
29574;SDS011;16507;51.046;6.406;2022-07-26T02:40:32;8.02;;;1.35;;
29574;SDS011;16507;51.046;6.406;2022-07-26T02:42:58;5.90;;;1.40;;
29574;SDS011;16507;51.046;6.406;2022-07-26T02:45:25;7.03;;;1.10;;
29574;SDS011;16507;51.046;6.406;2022-07-26T02:47:51;2.80;;;1.20;;
29574;SDS011;16507;51.046;6.406;2022-07-26T02:50:19;9.52;;;1.50;;
29574;SDS011;16507;51.046;6.406;2022-07-26T02:52:46;5.88;;;1.70;;
29574;SDS011;16507;51.046;6.406;2022-07-26T02:55:12;5.00;;;1.95;;
29574;SDS011;16507;51.046;6.406;2022-07-26T02:57:39;5.25;;;1.20;;
29574;SDS011;16507;51.046;6.406;2022-07-26T03:00:05;5.00;;;1.40;;
29574;SDS011;16507;51.046;6.406;2022-07-26T03:02:31;6.18;;;1.30;;
29574;SDS011;16507;51.046;6.406;2022-07-26T03:04:57;6.47;;;1.58;;
29574;SDS011;16507;51.046;6.406;2022-07-26T03:07:23;10.05;;;1.40;;
29574;SDS011;16507;51.046;6.406;2022-07-26T03:09:48;9.48;;;1.63;;
29574;SDS011;16507;51.046;6.406;2022-07-26T03:12:14;6.90;;;1.35;;
29574;SDS011;16507;51.046;6.406;2022-07-26T03:14:40;4.78;;;1.35;;
29574;SDS011;16507;51.046;6.406;2022-07-26T03:17:05;10.98;;;1.77;;
29574;SDS011;16507;51.046;6.406;2022-07-26T03:19:31;9.07;;;2.13;;
29574;SDS011;16507;51.046;6.406;2022-07-26T03:21:56;7.85;;;1.50;;
29574;SDS011;16507;51.046;6.406;2022-07-26T03:24:22;10.05;;;1.73;;
29574;SDS011;16507;51.046;6.406;2022-07-26T03:26:48;4.97;;;1.30;;
29574;SDS011;16507;51.046;6.406;2022-07-26T03:29:13;7.97;;;1.70;;
29574;SDS011;16507;51.046;6.406;2022-07-26T03:31:39;2.60;;;1.10;;
29574;SDS011;16507;51.046;6.406;2022-07-26T03:34:05;6.88;;;1.75;;
29574;SDS011;16507;51.046;6.406;2022-07-26T03:36:30;5.28;;;1.33;;
29574;SDS011;16507;51.046;6.406;2022-07-26T03:38:56;7.90;;;1.70;;
29574;SDS011;16507;51.046;6.406;2022-07-26T03:41:22;9.55;;;1.77;;
29574;SDS011;16507;51.046;6.406;2022-07-26T03:43:47;12.48;;;1.98;;
29574;SDS011;16507;51.046;6.406;2022-07-26T03:46:13;6.28;;;1.67;;
29574;SDS011;16507;51.046;6.406;2022-07-26T03:48:39;10.27;;;1.95;;
29574;SDS011;16507;51.046;6.406;2022-07-26T03:51:04;8.02;;;1.85;;
29574;SDS011;16507;51.046;6.406;2022-07-26T03:53:30;3.85;;;1.40;;
29574;SDS011;16507;51.046;6.406;2022-07-26T03:55:56;6.95;;;1.90;;
29574;SDS011;16507;51.046;6.406;2022-07-26T03:58:40;10.00;;;1.48;;
29574;SDS011;16507;51.046;6.406;2022-07-26T04:01:06;7.97;;;1.80;;
29574;SDS011;16507;51.046;6.406;2022-07-26T04:03:31;7.70;;;1.60;;
29574;SDS011;16507;51.046;6.406;2022-07-26T04:05:57;17.15;;;2.05;;
29574;SDS011;16507;51.046;6.406;2022-07-26T04:08:23;10.32;;;2.03;;
29574;SDS011;16507;51.046;6.406;2022-07-26T04:10:48;9.93;;;1.67;;
29574;SDS011;16507;51.046;6.406;2022-07-26T04:13:18;8.02;;;1.83;;
29574;SDS011;16507;51.046;6.406;2022-07-26T04:15:44;14.68;;;2.70;;
29574;SDS011;16507;51.046;6.406;2022-07-26T04:18:10;13.65;;;2.00;;
29574;SDS011;16507;51.046;6.406;2022-07-26T04:20:38;6.53;;;1.35;;
29574;SDS011;16507;51.046;6.406;2022-07-26T04:23:04;10.85;;;1.98;;
29574;SDS011;16507;51.046;6.406;2022-07-26T04:25:29;5.40;;;1.65;;
29574;SDS011;16507;51.046;6.406;2022-07-26T04:27:56;15.90;;;2.25;;
29574;SDS011;16507;51.046;6.406;2022-07-26T04:30:21;9.77;;;1.95;;
29574;SDS011;16507;51.046;6.406;2022-07-26T04:32:47;8.52;;;1.58;;
29574;SDS011;16507;51.046;6.406;2022-07-26T04:35:13;7.43;;;2.00;;
29574;SDS011;16507;51.046;6.406;2022-07-26T04:37:39;9.88;;;2.05;;
29574;SDS011;16507;51.046;6.406;2022-07-26T04:40:06;6.18;;;2.10;;
29574;SDS011;16507;51.046;6.406;2022-07-26T04:42:33;16.15;;;2.28;;
29574;SDS011;16507;51.046;6.406;2022-07-26T04:44:59;14.98;;;2.15;;
29574;SDS011;16507;51.046;6.406;2022-07-26T04:47:25;5.00;;;1.83;;
29574;SDS011;16507;51.046;6.406;2022-07-26T04:49:50;7.78;;;2.97;;
29574;SDS011;16507;51.046;6.406;2022-07-26T04:52:16;5.00;;;1.58;;
29574;SDS011;16507;51.046;6.406;2022-07-26T04:54:42;6.28;;;1.83;;
29574;SDS011;16507;51.046;6.406;2022-07-26T04:57:07;15.75;;;2.30;;
29574;SDS011;16507;51.046;6.406;2022-07-26T04:59:33;9.45;;;1.95;;
29574;SDS011;16507;51.046;6.406;2022-07-26T05:01:58;7.53;;;1.80;;
29574;SDS011;16507;51.046;6.406;2022-07-26T05:04:24;15.25;;;2.08;;
29574;SDS011;16507;51.046;6.406;2022-07-26T05:06:50;7.68;;;2.10;;
29574;SDS011;16507;51.046;6.406;2022-07-26T05:09:16;7.70;;;2.05;;
29574;SDS011;16507;51.046;6.406;2022-07-26T05:11:41;14.00;;;2.40;;
29574;SDS011;16507;51.046;6.406;2022-07-26T05:14:07;7.95;;;2.25;;
29574;SDS011;16507;51.046;6.406;2022-07-26T05:16:32;9.40;;;2.00;;
29574;SDS011;16507;51.046;6.406;2022-07-26T05:18:58;11.57;;;2.33;;
29574;SDS011;16507;51.046;6.406;2022-07-26T05:21:24;7.72;;;2.67;;
29574;SDS011;16507;51.046;6.406;2022-07-26T05:23:51;11.27;;;2.90;;
29574;SDS011;16507;51.046;6.406;2022-07-26T05:26:18;11.43;;;2.47;;
29574;SDS011;16507;51.046;6.406;2022-07-26T05:28:43;15.70;;;2.67;;
29574;SDS011;16507;51.046;6.406;2022-07-26T05:31:09;8.57;;;2.20;;
29574;SDS011;16507;51.046;6.406;2022-07-26T05:33:35;10.52;;;2.50;;
29574;SDS011;16507;51.046;6.406;2022-07-26T05:36:00;10.15;;;2.10;;
29574;SDS011;16507;51.046;6.406;2022-07-26T05:38:26;9.77;;;2.65;;
29574;SDS011;16507;51.046;6.406;2022-07-26T05:40:51;10.13;;;2.17;;
29574;SDS011;16507;51.046;6.406;2022-07-26T05:43:17;9.65;;;2.35;;
29574;SDS011;16507;51.046;6.406;2022-07-26T05:45:43;8.60;;;2.28;;
29574;SDS011;16507;51.046;6.406;2022-07-26T05:48:08;6.32;;;2.20;;
29574;SDS011;16507;51.046;6.406;2022-07-26T05:50:34;15.05;;;2.65;;
29574;SDS011;16507;51.046;6.406;2022-07-26T05:53:00;9.40;;;2.67;;
29574;SDS011;16507;51.046;6.406;2022-07-26T05:55:25;9.93;;;2.50;;
29574;SDS011;16507;51.046;6.406;2022-07-26T05:57:51;7.35;;;2.22;;
29574;SDS011;16507;51.046;6.406;2022-07-26T06:00:17;11.50;;;2.40;;
29574;SDS011;16507;51.046;6.406;2022-07-26T06:02:42;9.45;;;2.50;;
29574;SDS011;16507;51.046;6.406;2022-07-26T06:05:08;6.80;;;2.13;;
29574;SDS011;16507;51.046;6.406;2022-07-26T06:07:34;7.20;;;2.50;;
29574;SDS011;16507;51.046;6.406;2022-07-26T06:09:59;10.90;;;2.25;;
29574;SDS011;16507;51.046;6.406;2022-07-26T06:12:25;9.18;;;2.60;;
29574;SDS011;16507;51.046;6.406;2022-07-26T06:14:51;8.50;;;2.53;;
29574;SDS011;16507;51.046;6.406;2022-07-26T06:17:16;12.32;;;2.60;;
29574;SDS011;16507;51.046;6.406;2022-07-26T06:19:42;7.18;;;2.60;;
29574;SDS011;16507;51.046;6.406;2022-07-26T06:22:07;10.35;;;2.90;;
29574;SDS011;16507;51.046;6.406;2022-07-26T06:24:33;7.13;;;2.92;;
29574;SDS011;16507;51.046;6.406;2022-07-26T06:26:59;11.05;;;3.00;;
29574;SDS011;16507;51.046;6.406;2022-07-26T06:29:25;15.50;;;3.90;;
29574;SDS011;16507;51.046;6.406;2022-07-26T06:31:50;11.20;;;3.10;;
29574;SDS011;16507;51.046;6.406;2022-07-26T06:34:16;20.52;;;3.47;;
29574;SDS011;16507;51.046;6.406;2022-07-26T06:36:42;14.32;;;3.63;;
29574;SDS011;16507;51.046;6.406;2022-07-26T06:39:07;15.48;;;4.15;;
29574;SDS011;16507;51.046;6.406;2022-07-26T06:41:33;8.55;;;3.42;;
29574;SDS011;16507;51.046;6.406;2022-07-26T06:43:59;9.80;;;3.45;;
29574;SDS011;16507;51.046;6.406;2022-07-26T06:46:24;16.35;;;3.88;;
29574;SDS011;16507;51.046;6.406;2022-07-26T06:48:50;12.60;;;4.30;;
29574;SDS011;16507;51.046;6.406;2022-07-26T06:51:16;11.77;;;4.47;;
29574;SDS011;16507;51.046;6.406;2022-07-26T06:53:42;9.90;;;4.03;;
29574;SDS011;16507;51.046;6.406;2022-07-26T06:56:08;11.90;;;4.03;;
29574;SDS011;16507;51.046;6.406;2022-07-26T06:58:33;17.48;;;4.90;;
29574;SDS011;16507;51.046;6.406;2022-07-26T07:00:59;10.98;;;4.60;;
29574;SDS011;16507;51.046;6.406;2022-07-26T07:03:24;9.70;;;4.57;;
29574;SDS011;16507;51.046;6.406;2022-07-26T07:05:50;13.77;;;4.32;;
29574;SDS011;16507;51.046;6.406;2022-07-26T07:08:16;11.68;;;4.93;;
29574;SDS011;16507;51.046;6.406;2022-07-26T07:10:42;16.55;;;5.20;;
29574;SDS011;16507;51.046;6.406;2022-07-26T07:13:08;11.50;;;5.47;;
29574;SDS011;16507;51.046;6.406;2022-07-26T07:15:33;11.93;;;5.05;;
29574;SDS011;16507;51.046;6.406;2022-07-26T07:17:59;13.98;;;4.63;;
29574;SDS011;16507;51.046;6.406;2022-07-26T07:20:25;10.38;;;4.90;;
29574;SDS011;16507;51.046;6.406;2022-07-26T07:22:52;18.13;;;5.53;;
29574;SDS011;16507;51.046;6.406;2022-07-26T07:25:18;8.30;;;5.03;;
29574;SDS011;16507;51.046;6.406;2022-07-26T07:27:43;16.13;;;5.13;;
29574;SDS011;16507;51.046;6.406;2022-07-26T07:30:09;10.63;;;5.32;;
29574;SDS011;16507;51.046;6.406;2022-07-26T07:32:36;10.77;;;5.22;;
29574;SDS011;16507;51.046;6.406;2022-07-26T07:35:02;12.25;;;6.20;;
29574;SDS011;16507;51.046;6.406;2022-07-26T07:37:27;16.95;;;5.45;;
29574;SDS011;16507;51.046;6.406;2022-07-26T07:39:53;11.60;;;6.07;;
29574;SDS011;16507;51.046;6.406;2022-07-26T07:42:19;22.02;;;6.30;;
29574;SDS011;16507;51.046;6.406;2022-07-26T07:44:44;14.32;;;6.00;;
29574;SDS011;16507;51.046;6.406;2022-07-26T07:47:11;12.57;;;5.78;;
29574;SDS011;16507;51.046;6.406;2022-07-26T07:49:36;11.40;;;6.25;;
29574;SDS011;16507;51.046;6.406;2022-07-26T07:52:02;18.90;;;6.43;;
29574;SDS011;16507;51.046;6.406;2022-07-26T07:54:29;12.20;;;6.00;;
29574;SDS011;16507;51.046;6.406;2022-07-26T07:56:54;17.83;;;5.70;;
29574;SDS011;16507;51.046;6.406;2022-07-26T07:59:21;16.92;;;6.55;;
29574;SDS011;16507;51.046;6.406;2022-07-26T08:01:47;12.65;;;5.78;;
29574;SDS011;16507;51.046;6.406;2022-07-26T08:04:13;12.65;;;5.05;;
29574;SDS011;16507;51.046;6.406;2022-07-26T08:06:39;7.93;;;4.75;;
29574;SDS011;16507;51.046;6.406;2022-07-26T08:09:05;12.90;;;5.35;;
29574;SDS011;16507;51.046;6.406;2022-07-26T08:11:31;11.45;;;5.68;;
29574;SDS011;16507;51.046;6.406;2022-07-26T08:13:56;10.65;;;5.28;;
29574;SDS011;16507;51.046;6.406;2022-07-26T08:16:22;14.77;;;5.22;;
29574;SDS011;16507;51.046;6.406;2022-07-26T08:18:48;8.75;;;4.65;;
29574;SDS011;16507;51.046;6.406;2022-07-26T08:21:13;8.93;;;4.93;;
29574;SDS011;16507;51.046;6.406;2022-07-26T08:23:39;9.32;;;4.78;;
29574;SDS011;16507;51.046;6.406;2022-07-26T08:26:04;11.00;;;4.88;;
29574;SDS011;16507;51.046;6.406;2022-07-26T08:28:30;9.45;;;5.15;;
29574;SDS011;16507;51.046;6.406;2022-07-26T08:30:56;11.48;;;4.78;;
29574;SDS011;16507;51.046;6.406;2022-07-26T08:33:22;7.43;;;4.53;;
29574;SDS011;16507;51.046;6.406;2022-07-26T08:35:48;7.38;;;4.35;;
29574;SDS011;16507;51.046;6.406;2022-07-26T08:38:13;8.75;;;5.25;;
29574;SDS011;16507;51.046;6.406;2022-07-26T08:40:39;8.20;;;5.25;;
29574;SDS011;16507;51.046;6.406;2022-07-26T08:43:06;12.30;;;5.97;;
29574;SDS011;16507;51.046;6.406;2022-07-26T08:45:35;6.50;;;4.60;;
29574;SDS011;16507;51.046;6.406;2022-07-26T08:48:00;9.60;;;4.38;;
29574;SDS011;16507;51.046;6.406;2022-07-26T08:50:26;14.02;;;4.88;;
29574;SDS011;16507;51.046;6.406;2022-07-26T08:52:58;6.80;;;4.25;;
29574;SDS011;16507;51.046;6.406;2022-07-26T08:55:25;15.48;;;4.28;;
29574;SDS011;16507;51.046;6.406;2022-07-26T08:57:51;10.40;;;4.40;;
29574;SDS011;16507;51.046;6.406;2022-07-26T09:00:20;6.28;;;3.47;;
29574;SDS011;16507;51.046;6.406;2022-07-26T09:02:53;5.78;;;3.65;;
29574;SDS011;16507;51.046;6.406;2022-07-26T09:05:27;7.07;;;2.70;;
29574;SDS011;16507;51.046;6.406;2022-07-26T09:07:58;6.53;;;3.42;;
29574;SDS011;16507;51.046;6.406;2022-07-26T09:10:25;5.03;;;2.17;;
29574;SDS011;16507;51.046;6.406;2022-07-26T09:12:55;9.18;;;2.42;;
29574;SDS011;16507;51.046;6.406;2022-07-26T09:15:25;9.13;;;2.58;;
29574;SDS011;16507;51.046;6.406;2022-07-26T09:17:55;7.07;;;2.22;;
29574;SDS011;16507;51.046;6.406;2022-07-26T09:25:21;6.68;;;2.75;;
29574;SDS011;16507;51.046;6.406;2022-07-26T09:27:49;4.30;;;2.45;;
29574;SDS011;16507;51.046;6.406;2022-07-26T09:30:15;3.70;;;2.42;;
29574;SDS011;16507;51.046;6.406;2022-07-26T09:33:03;5.45;;;2.45;;
29574;SDS011;16507;51.046;6.406;2022-07-26T09:35:30;6.57;;;2.30;;
29574;SDS011;16507;51.046;6.406;2022-07-26T09:37:58;5.90;;;2.15;;
29574;SDS011;16507;51.046;6.406;2022-07-26T09:40:30;9.27;;;2.10;;
29574;SDS011;16507;51.046;6.406;2022-07-26T09:43:02;6.75;;;2.88;;
29574;SDS011;16507;51.046;6.406;2022-07-26T09:45:30;5.65;;;2.60;;
29574;SDS011;16507;51.046;6.406;2022-07-26T09:47:58;8.27;;;2.63;;
29574;SDS011;16507;51.046;6.406;2022-07-26T09:50:25;5.55;;;2.13;;
29574;SDS011;16507;51.046;6.406;2022-07-26T09:52:59;4.60;;;2.17;;
29574;SDS011;16507;51.046;6.406;2022-07-26T09:55:28;7.10;;;2.10;;
29574;SDS011;16507;51.046;6.406;2022-07-26T09:57:55;7.60;;;2.58;;
29574;SDS011;16507;51.046;6.406;2022-07-26T10:00:23;7.60;;;2.60;;
29574;SDS011;16507;51.046;6.406;2022-07-26T10:02:53;6.75;;;2.35;;
29574;SDS011;16507;51.046;6.406;2022-07-26T10:05:19;5.93;;;2.55;;
29574;SDS011;16507;51.046;6.406;2022-07-26T10:07:46;10.60;;;2.65;;
29574;SDS011;16507;51.046;6.406;2022-07-26T10:10:22;4.55;;;2.15;;
29574;SDS011;16507;51.046;6.406;2022-07-26T10:12:57;5.40;;;2.40;;
29574;SDS011;16507;51.046;6.406;2022-07-26T10:15:33;5.10;;;2.28;;
29574;SDS011;16507;51.046;6.406;2022-07-26T10:18:02;6.45;;;2.28;;
29574;SDS011;16507;51.046;6.406;2022-07-26T10:23:51;4.47;;;2.35;;
29574;SDS011;16507;51.046;6.406;2022-07-26T10:26:02;6.55;;;2.83;;
29574;SDS011;16507;51.046;6.406;2022-07-26T10:28:29;7.05;;;2.58;;
29574;SDS011;16507;51.046;6.406;2022-07-26T10:33:52;7.03;;;2.70;;
29574;SDS011;16507;51.046;6.406;2022-07-26T10:36:22;9.00;;;2.58;;
29574;SDS011;16507;51.046;6.406;2022-07-26T10:39:00;6.15;;;2.63;;
29574;SDS011;16507;51.046;6.406;2022-07-26T10:41:29;9.05;;;3.28;;
29574;SDS011;16507;51.046;6.406;2022-07-26T10:46:57;12.30;;;4.30;;
29574;SDS011;16507;51.046;6.406;2022-07-26T10:49:37;4.45;;;4.05;;
29574;SDS011;16507;51.046;6.406;2022-07-26T10:52:21;7.60;;;4.15;;
29574;SDS011;16507;51.046;6.406;2022-07-26T10:57:28;7.35;;;4.63;;
29574;SDS011;16507;51.046;6.406;2022-07-26T10:59:55;5.07;;;3.38;;
29574;SDS011;16507;51.046;6.406;2022-07-26T11:02:22;5.13;;;4.32;;
29574;SDS011;16507;51.046;6.406;2022-07-26T11:04:59;4.63;;;4.25;;
29574;SDS011;16507;51.046;6.406;2022-07-26T11:07:27;6.97;;;4.40;;
29574;SDS011;16507;51.046;6.406;2022-07-26T11:09:57;6.38;;;4.53;;
29574;SDS011;16507;51.046;6.406;2022-07-26T11:12:24;5.38;;;4.97;;
29574;SDS011;16507;51.046;6.406;2022-07-26T11:14:50;6.25;;;4.85;;
29574;SDS011;16507;51.046;6.406;2022-07-26T11:17:24;9.43;;;4.40;;
29574;SDS011;16507;51.046;6.406;2022-07-26T11:19:54;6.22;;;4.20;;
29574;SDS011;16507;51.046;6.406;2022-07-26T11:22:21;5.80;;;4.28;;
29574;SDS011;16507;51.046;6.406;2022-07-26T11:24:55;4.65;;;4.25;;
29574;SDS011;16507;51.046;6.406;2022-07-26T11:27:20;6.13;;;4.05;;
29574;SDS011;16507;51.046;6.406;2022-07-26T11:29:46;4.43;;;4.03;;
29574;SDS011;16507;51.046;6.406;2022-07-26T11:32:16;4.40;;;4.00;;
29574;SDS011;16507;51.046;6.406;2022-07-26T11:34:58;9.50;;;4.47;;
29574;SDS011;16507;51.046;6.406;2022-07-26T11:37:24;5.80;;;4.68;;
29574;SDS011;16507;51.046;6.406;2022-07-26T11:39:50;6.28;;;4.22;;
29574;SDS011;16507;51.046;6.406;2022-07-26T11:42:17;9.48;;;3.70;;
29574;SDS011;16507;51.046;6.406;2022-07-26T11:44:45;4.65;;;3.63;;
29574;SDS011;16507;51.046;6.406;2022-07-26T11:47:12;5.55;;;4.35;;
29574;SDS011;16507;51.046;6.406;2022-07-26T11:49:39;5.53;;;3.90;;
29574;SDS011;16507;51.046;6.406;2022-07-26T11:52:05;4.25;;;3.17;;
29574;SDS011;16507;51.046;6.406;2022-07-26T11:54:52;4.35;;;2.70;;
29574;SDS011;16507;51.046;6.406;2022-07-26T11:57:17;4.57;;;3.10;;
29574;SDS011;16507;51.046;6.406;2022-07-26T11:59:44;4.05;;;2.90;;
29574;SDS011;16507;51.046;6.406;2022-07-26T12:02:12;6.63;;;2.95;;
29574;SDS011;16507;51.046;6.406;2022-07-26T12:04:39;2.40;;;1.13;;
29574;SDS011;16507;51.046;6.406;2022-07-26T12:07:10;2.70;;;1.00;;
29574;SDS011;16507;51.046;6.406;2022-07-26T12:09:41;2.90;;;0.73;;
29574;SDS011;16507;51.046;6.406;2022-07-26T12:12:19;2.97;;;0.88;;
29574;SDS011;16507;51.046;6.406;2022-07-26T12:15:04;1.95;;;0.80;;
29574;SDS011;16507;51.046;6.406;2022-07-26T12:17:31;5.38;;;0.90;;
29574;SDS011;16507;51.046;6.406;2022-07-26T12:20:13;1.67;;;1.10;;
29574;SDS011;16507;51.046;6.406;2022-07-26T12:22:51;2.28;;;1.25;;
29574;SDS011;16507;51.046;6.406;2022-07-26T12:25:25;6.00;;;1.10;;
29574;SDS011;16507;51.046;6.406;2022-07-26T12:27:52;1.42;;;1.00;;
29574;SDS011;16507;51.046;6.406;2022-07-26T12:30:18;1.52;;;1.08;;
29574;SDS011;16507;51.046;6.406;2022-07-26T12:32:44;2.72;;;1.10;;
29574;SDS011;16507;51.046;6.406;2022-07-26T12:35:15;2.63;;;1.10;;
29574;SDS011;16507;51.046;6.406;2022-07-26T12:37:49;2.45;;;1.33;;
29574;SDS011;16507;51.046;6.406;2022-07-26T12:40:18;1.98;;;1.02;;
29574;SDS011;16507;51.046;6.406;2022-07-26T12:45:14;3.30;;;1.52;;
29574;SDS011;16507;51.046;6.406;2022-07-26T12:47:44;4.35;;;1.42;;
29574;SDS011;16507;51.046;6.406;2022-07-26T12:50:12;4.88;;;1.17;;
29574;SDS011;16507;51.046;6.406;2022-07-26T12:52:39;9.50;;;1.83;;
29574;SDS011;16507;51.046;6.406;2022-07-26T12:55:06;3.85;;;1.40;;
29574;SDS011;16507;51.046;6.406;2022-07-26T12:57:35;2.42;;;2.00;;
29574;SDS011;16507;51.046;6.406;2022-07-26T13:00:01;3.50;;;2.05;;
29574;SDS011;16507;51.046;6.406;2022-07-26T13:02:27;11.45;;;1.67;;
29574;SDS011;16507;51.046;6.406;2022-07-26T13:04:53;3.70;;;1.80;;
29574;SDS011;16507;51.046;6.406;2022-07-26T13:07:18;10.65;;;1.70;;
29574;SDS011;16507;51.046;6.406;2022-07-26T13:09:45;2.42;;;1.58;;
29574;SDS011;16507;51.046;6.406;2022-07-26T13:12:11;3.97;;;1.60;;
29574;SDS011;16507;51.046;6.406;2022-07-26T13:14:38;2.10;;;0.77;;
29574;SDS011;16507;51.046;6.406;2022-07-26T13:17:05;2.05;;;1.10;;
29574;SDS011;16507;51.046;6.406;2022-07-26T13:19:31;2.90;;;0.98;;
29574;SDS011;16507;51.046;6.406;2022-07-26T13:21:59;1.13;;;0.70;;
29574;SDS011;16507;51.046;6.406;2022-07-26T13:24:26;1.02;;;0.80;;
29574;SDS011;16507;51.046;6.406;2022-07-26T13:26:53;1.20;;;0.80;;
29574;SDS011;16507;51.046;6.406;2022-07-26T13:29:19;3.83;;;1.20;;
29574;SDS011;16507;51.046;6.406;2022-07-26T13:31:45;1.92;;;1.00;;
29574;SDS011;16507;51.046;6.406;2022-07-26T13:34:11;3.70;;;1.08;;
29574;SDS011;16507;51.046;6.406;2022-07-26T13:36:37;1.45;;;1.23;;
29574;SDS011;16507;51.046;6.406;2022-07-26T13:39:03;2.08;;;1.20;;
29574;SDS011;16507;51.046;6.406;2022-07-26T13:41:29;1.25;;;1.02;;
29574;SDS011;16507;51.046;6.406;2022-07-26T13:43:55;1.77;;;1.35;;
29574;SDS011;16507;51.046;6.406;2022-07-26T13:46:22;1.73;;;1.42;;
29574;SDS011;16507;51.046;6.406;2022-07-26T13:48:48;3.13;;;1.42;;
29574;SDS011;16507;51.046;6.406;2022-07-26T13:51:15;3.03;;;1.85;;
29574;SDS011;16507;51.046;6.406;2022-07-26T13:53:41;1.30;;;1.20;;
29574;SDS011;16507;51.046;6.406;2022-07-26T13:56:06;1.58;;;1.48;;
29574;SDS011;16507;51.046;6.406;2022-07-26T13:58:33;1.80;;;1.33;;
29574;SDS011;16507;51.046;6.406;2022-07-26T14:00:59;3.35;;;1.33;;
29574;SDS011;16507;51.046;6.406;2022-07-26T14:03:26;2.05;;;1.73;;
29574;SDS011;16507;51.046;6.406;2022-07-26T14:05:52;2.53;;;1.23;;
29574;SDS011;16507;51.046;6.406;2022-07-26T14:08:18;1.30;;;1.20;;
29574;SDS011;16507;51.046;6.406;2022-07-26T14:10:45;2.30;;;1.05;;
29574;SDS011;16507;51.046;6.406;2022-07-26T14:13:11;2.70;;;1.35;;
29574;SDS011;16507;51.046;6.406;2022-07-26T14:15:36;3.40;;;1.42;;
29574;SDS011;16507;51.046;6.406;2022-07-26T14:18:02;3.03;;;0.80;;
29574;SDS011;16507;51.046;6.406;2022-07-26T14:20:28;0.90;;;0.90;;
29574;SDS011;16507;51.046;6.406;2022-07-26T14:22:54;0.80;;;0.80;;
29574;SDS011;16507;51.046;6.406;2022-07-26T14:25:22;0.85;;;0.85;;
29574;SDS011;16507;51.046;6.406;2022-07-26T14:27:52;2.47;;;0.70;;
29574;SDS011;16507;51.046;6.406;2022-07-26T14:30:19;1.38;;;0.90;;
29574;SDS011;16507;51.046;6.406;2022-07-26T14:32:45;1.45;;;0.93;;
29574;SDS011;16507;51.046;6.406;2022-07-26T14:35:11;2.15;;;0.80;;
29574;SDS011;16507;51.046;6.406;2022-07-26T14:37:37;1.75;;;1.10;;
29574;SDS011;16507;51.046;6.406;2022-07-26T14:40:04;3.65;;;0.65;;
29574;SDS011;16507;51.046;6.406;2022-07-26T14:42:31;0.80;;;0.80;;
29574;SDS011;16507;51.046;6.406;2022-07-26T14:44:57;5.68;;;0.90;;
29574;SDS011;16507;51.046;6.406;2022-07-26T14:47:23;0.75;;;0.70;;
29574;SDS011;16507;51.046;6.406;2022-07-26T14:49:48;3.70;;;0.75;;
29574;SDS011;16507;51.046;6.406;2022-07-26T14:52:14;1.90;;;0.70;;
29574;SDS011;16507;51.046;6.406;2022-07-26T14:54:40;0.98;;;0.70;;
29574;SDS011;16507;51.046;6.406;2022-07-26T14:57:06;2.80;;;0.70;;
29574;SDS011;16507;51.046;6.406;2022-07-26T14:59:31;3.40;;;0.70;;
29574;SDS011;16507;51.046;6.406;2022-07-26T15:01:57;1.27;;;1.05;;
29574;SDS011;16507;51.046;6.406;2022-07-26T15:04:23;0.60;;;0.55;;